createdAt,value
2022-12-17T00:00:18.670Z,36.22
2022-12-17T00:03:07.331Z,36.39
2022-12-17T00:05:52.949Z,36.59
2022-12-17T00:08:41.881Z,36.10
2022-12-17T00:11:27.214Z,35.88
2022-12-17T00:14:12.885Z,36.43
2022-12-17T00:16:58.291Z,36.39
2022-12-17T00:19:45.141Z,36.18
2022-12-17T00:22:31.053Z,35.97
2022-12-17T00:25:16.482Z,36.19
2022-12-17T00:28:01.704Z,35.98
2022-12-17T00:30:47.085Z,35.80
2022-12-17T00:33:32.724Z,36.20
2022-12-17T00:36:19.675Z,36.54
2022-12-17T00:39:05.029Z,36.01
2022-12-17T00:41:50.270Z,36.28
2022-12-17T00:44:35.582Z,36.21
2022-12-17T00:47:26.265Z,36.33
2022-12-17T00:50:12.951Z,35.99
2022-12-17T00:53:01.341Z,36.02
2022-12-17T00:55:46.725Z,36.04
2022-12-17T00:58:32.120Z,36.08
2022-12-17T01:01:18.059Z,35.99
2022-12-17T01:04:03.824Z,36.46
2022-12-17T01:06:49.083Z,36.54
2022-12-17T01:09:35.908Z,35.85
2022-12-17T01:12:21.221Z,36.20
2022-12-17T01:15:06.592Z,36.34
2022-12-17T01:17:51.833Z,36.21
2022-12-17T01:20:37.185Z,36.51
2022-12-17T01:23:25.892Z,36.04
2022-12-17T01:26:13.556Z,36.41
2022-12-17T01:28:59.205Z,35.95
2022-12-17T01:31:44.548Z,35.80
2022-12-17T01:34:29.851Z,36.34
2022-12-17T01:37:15.248Z,35.76
2022-12-17T01:40:00.617Z,36.21
2022-12-17T01:42:55.292Z,36.11
2022-12-17T01:45:41.016Z,36.42
2022-12-17T01:48:28.040Z,36.26
2022-12-17T01:51:14.988Z,36.41
2022-12-17T01:54:01.750Z,35.62
2022-12-17T01:56:47.013Z,35.88
2022-12-17T01:59:33.976Z,36.22
2022-12-17T02:02:19.513Z,36.10
2022-12-17T02:05:05.207Z,36.31
2022-12-17T02:08:00.500Z,36.01
2022-12-17T02:10:49.074Z,35.85
2022-12-17T02:13:36.530Z,35.88
2022-12-17T02:16:28.208Z,35.81
2022-12-17T02:19:16.061Z,35.39
2022-12-17T02:22:01.541Z,35.58
2022-12-17T02:24:50.083Z,35.80
2022-12-17T02:27:42.194Z,36.04
2022-12-17T02:30:28.465Z,36.29
2022-12-17T02:33:13.802Z,35.61
2022-12-17T02:36:05.793Z,35.80
2022-12-17T02:38:51.680Z,35.67
2022-12-17T02:41:40.449Z,35.74
2022-12-17T02:44:29.574Z,36.16
2022-12-17T02:47:16.276Z,35.76
2022-12-17T02:50:03.063Z,35.80
2022-12-17T02:52:53.546Z,35.84
2022-12-17T02:55:39.302Z,36.07
2022-12-17T02:58:25.197Z,36.41
2022-12-17T03:01:13.040Z,35.66
2022-12-17T03:03:59.009Z,35.92
2022-12-17T03:06:45.447Z,36.16
2022-12-17T03:09:30.737Z,36.36
2022-12-17T03:12:15.976Z,35.96
2022-12-17T03:15:01.201Z,35.88
2022-12-17T03:17:49.160Z,36.53
2022-12-17T03:20:34.922Z,35.78
2022-12-17T03:23:21.579Z,36.05
2022-12-17T03:26:06.911Z,35.89
2022-12-17T03:28:54.729Z,36.42
2022-12-17T03:31:40.276Z,35.86
2022-12-17T03:34:27.397Z,35.80
2022-12-17T03:37:12.956Z,36.07
2022-12-17T03:39:58.221Z,36.22
2022-12-17T03:42:43.737Z,36.24
2022-12-17T03:45:29.177Z,35.84
2022-12-17T03:48:23.456Z,36.05
2022-12-17T03:51:10.644Z,36.18
2022-12-17T03:53:56.077Z,36.32
2022-12-17T03:56:41.619Z,35.81
2022-12-17T03:59:27.276Z,36.31
2022-12-17T04:02:12.859Z,36.00
2022-12-17T04:04:58.718Z,36.28
2022-12-17T04:07:45.577Z,36.19
2022-12-17T04:10:30.857Z,36.56
2022-12-17T04:13:16.688Z,36.54
2022-12-17T04:16:10.324Z,36.60
2022-12-17T04:18:55.847Z,36.55
2022-12-17T04:21:41.384Z,35.82
2022-12-17T04:24:28.673Z,36.01
2022-12-17T04:27:13.947Z,36.17
2022-12-17T04:29:59.719Z,36.24
2022-12-17T04:32:45.260Z,36.57
2022-12-17T04:35:30.716Z,35.90
2022-12-17T04:38:16.044Z,35.89
2022-12-17T04:41:05.200Z,36.03
2022-12-17T04:43:50.774Z,36.63
2022-12-17T04:46:36.017Z,36.34
2022-12-17T04:49:21.619Z,36.36
2022-12-17T04:52:07.289Z,35.83
2022-12-17T04:54:53.029Z,35.89
2022-12-17T04:57:39.975Z,36.21
2022-12-17T05:00:26.642Z,36.48
2022-12-17T05:03:12.309Z,36.58
2022-12-17T05:05:57.629Z,36.09
2022-12-17T05:08:43.035Z,36.67
2022-12-17T05:11:28.536Z,35.97
2022-12-17T05:14:15.328Z,36.53
2022-12-17T05:17:00.692Z,35.93
2022-12-17T05:19:45.904Z,36.52
2022-12-17T05:22:31.301Z,36.07
2022-12-17T05:25:19.644Z,36.18
2022-12-17T05:28:05.664Z,35.92
2022-12-17T05:30:52.621Z,36.15
2022-12-17T05:33:38.848Z,36.21
2022-12-17T05:36:25.100Z,36.67
2022-12-17T05:39:10.780Z,36.04
2022-12-17T05:41:56.097Z,36.73
2022-12-17T05:44:41.461Z,36.34
2022-12-17T05:47:28.666Z,36.29
2022-12-17T05:50:14.142Z,36.56
2022-12-17T05:52:59.407Z,36.72
2022-12-17T05:55:44.731Z,36.71
2022-12-17T05:58:30.489Z,36.38
2022-12-17T06:01:16.375Z,36.44
2022-12-17T06:04:03.401Z,36.05
2022-12-17T06:06:49.185Z,36.64
2022-12-17T06:09:34.519Z,36.80
2022-12-17T06:12:20.136Z,36.47
2022-12-17T06:15:05.802Z,36.11
2022-12-17T06:17:51.445Z,36.22
2022-12-17T06:20:38.472Z,36.28
2022-12-17T06:23:25.189Z,36.08
2022-12-17T06:26:16.620Z,36.11
2022-12-17T06:29:02.269Z,36.39
2022-12-17T06:31:47.731Z,36.26
2022-12-17T06:34:33.401Z,35.96
2022-12-17T06:37:20.344Z,36.36
2022-12-17T06:40:05.693Z,36.21
2022-12-17T06:42:51.643Z,36.03
2022-12-17T06:45:37.039Z,36.36
2022-12-17T06:48:22.815Z,36.63
2022-12-17T06:51:08.083Z,36.15
2022-12-17T06:53:54.942Z,36.33
2022-12-17T06:56:40.303Z,35.92
2022-12-17T06:59:25.601Z,36.01
2022-12-17T07:02:10.988Z,36.34
2022-12-17T07:04:56.860Z,36.47
2022-12-17T07:07:42.087Z,36.36
2022-12-17T07:10:29.037Z,36.15
2022-12-17T07:13:13.589Z,35.73
2022-12-17T07:16:10.750Z,36.28
2022-12-17T07:18:56.399Z,35.91
2022-12-17T07:21:42.057Z,36.31
2022-12-17T07:24:27.976Z,36.54
2022-12-17T07:27:14.769Z,35.82
2022-12-17T07:30:00.091Z,36.46
2022-12-17T07:32:45.374Z,35.87
2022-12-17T07:35:30.863Z,35.99
2022-12-17T07:38:19.731Z,36.43
2022-12-17T07:41:05.462Z,36.56
2022-12-17T07:44:07.055Z,36.18
2022-12-17T07:46:52.577Z,35.93
2022-12-17T07:49:37.979Z,36.41
2022-12-17T07:52:23.715Z,35.86
2022-12-17T07:55:10.507Z,36.48
2022-12-17T07:57:57.768Z,36.59
2022-12-17T08:00:49.262Z,35.93
2022-12-17T08:03:49.573Z,35.82
2022-12-17T08:06:35.019Z,35.97
2022-12-17T08:09:17.006Z,36.18
2022-12-17T08:12:02.420Z,35.67
2022-12-17T08:14:47.955Z,35.65
2022-12-17T08:17:34.692Z,36.06
2022-12-17T08:20:20.426Z,35.86
2022-12-17T08:23:05.769Z,35.65
2022-12-17T08:25:51.133Z,35.66
2022-12-17T08:28:52.372Z,35.97
2022-12-17T08:31:49.549Z,35.92
2022-12-17T08:34:36.768Z,36.13
2022-12-17T08:37:22.391Z,35.73
2022-12-17T08:40:07.667Z,35.79
2022-12-17T08:42:53.128Z,35.93
2022-12-17T08:45:38.621Z,36.03
2022-12-17T08:48:24.456Z,35.32
2022-12-17T08:51:11.254Z,34.95
2022-12-17T08:53:56.565Z,33.45
2022-12-17T08:56:42.659Z,34.62
2022-12-17T08:59:38.019Z,34.92
2022-12-17T09:02:28.198Z,34.21
2022-12-17T09:05:13.891Z,34.32
2022-12-17T09:08:07.439Z,34.66
2022-12-17T09:10:53.165Z,34.67
2022-12-17T09:13:38.736Z,34.31
2022-12-17T09:16:24.939Z,34.07
2022-12-17T09:19:10.345Z,34.69
2022-12-17T09:21:56.086Z,34.20
2022-12-17T09:24:42.824Z,34.79
2022-12-17T09:27:28.344Z,34.78
2022-12-17T09:30:14.108Z,34.75
2022-12-17T09:32:59.423Z,34.16
2022-12-17T09:35:44.966Z,34.08
2022-12-17T09:38:30.579Z,34.34
2022-12-17T09:41:19.074Z,34.69
2022-12-17T09:44:06.528Z,33.91
2022-12-17T09:46:54.737Z,33.93
2022-12-17T09:49:44.690Z,34.14
2022-12-17T09:52:36.497Z,34.18
2022-12-17T09:55:22.891Z,33.88
2022-12-17T09:58:09.759Z,34.02
2022-12-17T10:01:01.676Z,33.91
2022-12-17T10:03:47.046Z,34.48
2022-12-17T10:06:35.611Z,34.39
2022-12-17T10:09:25.959Z,33.75
2022-12-17T10:12:11.432Z,34.22
2022-12-17T10:14:58.319Z,34.94
2022-12-17T10:17:43.642Z,34.31
2022-12-17T10:20:40.531Z,34.06
2022-12-17T10:23:25.958Z,34.41
2022-12-17T10:26:11.736Z,34.38
2022-12-17T10:28:57.223Z,34.54
2022-12-17T10:31:45.463Z,34.75
2022-12-17T10:34:33.259Z,34.42
2022-12-17T10:37:19.375Z,34.57
2022-12-17T10:40:13.041Z,34.92
2022-12-17T10:42:59.080Z,34.53
2022-12-17T10:45:45.403Z,34.38
2022-12-17T10:48:42.284Z,34.56
2022-12-17T10:51:37.379Z,35.03
2022-12-17T10:54:27.445Z,34.88
2022-12-17T10:57:14.417Z,34.54
2022-12-17T10:59:59.728Z,34.55
2022-12-17T11:02:46.656Z,34.66
2022-12-17T11:05:34.871Z,35.24
2022-12-17T11:08:20.171Z,34.62
2022-12-17T11:11:05.624Z,34.04
2022-12-17T11:13:51.312Z,34.74
2022-12-17T11:16:40.425Z,34.62
2022-12-17T11:19:37.192Z,34.57
2022-12-17T11:22:25.013Z,35.29
2022-12-17T11:25:15.643Z,34.76
2022-12-17T11:28:03.159Z,35.22
2022-12-17T11:30:48.852Z,34.54
2022-12-17T11:33:35.887Z,34.51
2022-12-17T11:36:32.439Z,34.99
2022-12-17T11:39:26.107Z,34.59
2022-12-17T11:42:14.370Z,34.76
2022-12-17T11:45:06.059Z,34.55
2022-12-17T11:47:58.909Z,34.41
2022-12-17T11:50:46.288Z,34.36
2022-12-17T11:53:42.421Z,34.50
2022-12-17T11:56:32.476Z,34.57
2022-12-17T11:59:19.322Z,34.78
2022-12-17T12:02:07.213Z,35.01
2022-12-17T12:05:01.130Z,34.48
2022-12-17T12:07:49.368Z,34.85
2022-12-17T12:10:37.585Z,34.77
2022-12-17T12:13:32.697Z,34.64
2022-12-17T12:16:23.572Z,35.31
2022-12-17T12:19:13.882Z,34.93
2022-12-17T12:22:00.814Z,35.17
2022-12-17T12:24:58.972Z,34.55
2022-12-17T12:27:48.527Z,34.60
2022-12-17T12:30:36.479Z,34.64
2022-12-17T12:33:26.788Z,34.96
2022-12-17T12:36:12.408Z,35.37
2022-12-17T12:38:59.125Z,34.59
2022-12-17T12:41:48.135Z,34.96
2022-12-17T12:44:37.078Z,35.16
2022-12-17T12:47:26.602Z,34.49
2022-12-17T12:50:14.101Z,34.95
2022-12-17T12:52:59.776Z,35.30
2022-12-17T12:55:55.125Z,34.80
2022-12-17T12:58:43.862Z,35.05
2022-12-17T13:01:29.398Z,35.07
2022-12-17T13:04:17.087Z,34.82
2022-12-17T13:06:47.494Z,35.50
2022-12-17T13:09:35.056Z,35.84
2022-12-17T13:12:32.163Z,36.11
2022-12-17T13:15:11.824Z,36.11
2022-12-17T13:17:41.202Z,36.05
2022-12-17T13:20:25.547Z,36.29
2022-12-17T13:22:54.700Z,36.44
2022-12-17T13:25:23.803Z,36.37
2022-12-17T13:27:52.032Z,35.50
2022-12-17T13:30:22.575Z,35.82
2022-12-17T13:32:55.055Z,36.18
2022-12-17T13:35:28.581Z,36.52
2022-12-17T13:38:00.293Z,36.97
2022-12-17T13:40:34.529Z,36.41
2022-12-17T13:43:02.665Z,37.12
2022-12-17T13:45:30.863Z,36.85
2022-12-17T13:47:59.643Z,36.31
2022-12-17T13:50:34.827Z,36.67
2022-12-17T13:53:10.686Z,36.41
2022-12-17T13:55:39.407Z,37.02
2022-12-17T13:58:07.586Z,36.86
2022-12-17T14:00:35.731Z,36.36
2022-12-17T14:03:12.128Z,36.32
2022-12-17T14:05:42.527Z,36.97
2022-12-17T14:08:10.668Z,36.48
2022-12-17T14:10:38.937Z,36.40
2022-12-17T14:13:07.079Z,36.24
2022-12-17T14:15:38.300Z,36.61
2022-12-17T14:18:07.577Z,36.39
2022-12-17T14:20:36.390Z,36.66
2022-12-17T14:23:07.448Z,36.33
2022-12-17T14:25:36.643Z,36.38
2022-12-17T14:28:06.651Z,36.34
2022-12-17T14:30:42.889Z,36.54
2022-12-17T14:33:27.726Z,36.46
2022-12-17T14:35:59.743Z,35.75
2022-12-17T14:38:38.462Z,35.69
2022-12-17T14:41:29.282Z,35.71
2022-12-17T14:43:58.310Z,35.46
2022-12-17T14:46:26.530Z,35.08
2022-12-17T14:49:05.884Z,34.97
2022-12-17T14:51:35.577Z,34.99
2022-12-17T14:54:29.167Z,35.72
2022-12-17T14:56:57.968Z,34.99
2022-12-17T14:59:27.649Z,35.38
2022-12-17T15:01:56.345Z,35.15
2022-12-17T15:04:24.681Z,35.72
2022-12-17T15:06:54.788Z,35.38
2022-12-17T15:09:24.563Z,35.47
2022-12-17T15:11:52.757Z,35.98
2022-12-17T15:14:20.869Z,35.47
2022-12-17T15:16:49.087Z,36.03
2022-12-17T15:19:18.076Z,35.63
2022-12-17T15:21:46.262Z,35.60
2022-12-17T15:24:16.762Z,35.48
2022-12-17T15:26:46.458Z,35.80
2022-12-17T15:29:14.760Z,35.46
2022-12-17T15:31:43.084Z,35.69
2022-12-17T15:34:11.569Z,35.26
2022-12-17T15:36:40.853Z,35.71
2022-12-17T15:39:09.699Z,35.66
2022-12-17T15:42:09.578Z,35.99
2022-12-17T15:44:39.113Z,36.24
2022-12-17T15:47:07.289Z,36.11
2022-12-17T15:49:36.661Z,36.59
2022-12-17T15:52:04.945Z,36.20
2022-12-17T15:54:33.084Z,36.94
2022-12-17T15:57:01.308Z,37.14
2022-12-17T15:59:29.520Z,37.22
2022-12-17T16:01:59.184Z,37.14
2022-12-17T16:04:27.396Z,36.46
2022-12-17T16:06:55.533Z,36.30
2022-12-17T16:09:24.599Z,36.77
2022-12-17T16:11:54.875Z,36.65
2022-12-17T16:14:23.165Z,37.15
2022-12-17T16:16:51.530Z,37.29
2022-12-17T16:19:21.104Z,37.23
2022-12-17T16:21:49.229Z,37.22
2022-12-17T16:24:17.778Z,36.88
2022-12-17T16:26:45.916Z,37.23
2022-12-17T16:29:14.058Z,37.07
2022-12-17T16:31:42.361Z,37.25
2022-12-17T16:34:10.885Z,36.98
2022-12-17T16:36:40.513Z,37.33
2022-12-17T16:39:08.730Z,37.42
2022-12-17T16:41:36.912Z,37.47
2022-12-17T16:44:05.848Z,37.46
2022-12-17T16:46:34.925Z,37.38
2022-12-17T16:49:06.770Z,37.60
2022-12-17T16:51:35.124Z,37.58
2022-12-17T16:54:13.216Z,37.81
2022-12-17T16:56:41.394Z,37.29
2022-12-17T16:59:09.741Z,37.77
2022-12-17T17:01:38.463Z,37.26
2022-12-17T17:04:06.958Z,37.38
2022-12-17T17:06:39.134Z,37.56
2022-12-17T17:09:08.765Z,37.56
2022-12-17T17:11:36.913Z,37.81
2022-12-17T17:14:05.264Z,37.94
2022-12-17T17:16:34.312Z,37.48
2022-12-17T17:19:02.767Z,37.37
2022-12-17T17:21:31.367Z,37.44
2022-12-17T17:24:01.399Z,37.35
2022-12-17T17:26:32.979Z,37.53
2022-12-17T17:29:01.376Z,37.43
2022-12-17T17:32:01.076Z,37.77
2022-12-17T17:34:17.670Z,37.65
2022-12-17T17:36:45.754Z,37.66
2022-12-17T17:39:15.554Z,38.00
2022-12-17T17:41:45.157Z,37.53
2022-12-17T17:44:14.382Z,37.85
2022-12-17T17:46:42.676Z,37.49
2022-12-17T17:49:11.884Z,37.44
2022-12-17T17:52:08.921Z,37.30
2022-12-17T17:54:33.919Z,37.39
2022-12-17T17:57:03.465Z,37.64
2022-12-17T17:59:34.288Z,37.29
2022-12-17T18:02:02.994Z,37.49
2022-12-17T18:04:31.519Z,37.45
2022-12-17T18:07:24.293Z,36.94
2022-12-17T18:09:47.761Z,36.86
2022-12-17T18:12:34.487Z,37.06
2022-12-17T18:15:14.160Z,36.60
2022-12-17T18:17:43.917Z,37.19
2022-12-17T18:20:13.141Z,36.66
2022-12-17T18:22:41.317Z,36.63
2022-12-17T18:25:09.472Z,36.89
2022-12-17T18:27:39.091Z,37.08
2022-12-17T18:30:08.080Z,37.15
2022-12-17T18:32:36.274Z,37.12
2022-12-17T18:35:04.408Z,36.83
2022-12-17T18:37:32.578Z,36.56
2022-12-17T18:40:00.737Z,36.48
2022-12-17T18:42:46.292Z,36.74
2022-12-17T18:45:15.876Z,36.67
2022-12-17T18:47:44.731Z,36.64
2022-12-17T18:50:13.528Z,36.91
2022-12-17T18:52:42.377Z,36.94
2022-12-17T18:55:13.502Z,36.90
2022-12-17T18:57:41.668Z,36.39
2022-12-17T19:00:11.391Z,36.38
2022-12-17T19:02:41.174Z,36.45
2022-12-17T19:05:09.834Z,36.13
2022-12-17T19:07:37.948Z,36.46
2022-12-17T19:10:07.058Z,36.18
2022-12-17T19:12:35.186Z,36.29
2022-12-17T19:15:03.408Z,36.49
2022-12-17T19:17:31.500Z,36.11
2022-12-17T19:20:01.048Z,36.31
2022-12-17T19:22:29.170Z,36.00
2022-12-17T19:24:57.312Z,35.89
2022-12-17T19:27:25.647Z,36.24
2022-12-17T19:29:54.997Z,35.94
2022-12-17T19:32:23.670Z,35.48
2022-12-17T19:34:51.824Z,35.76
2022-12-17T19:37:21.535Z,36.25
2022-12-17T19:39:49.737Z,35.67
2022-12-17T19:42:25.552Z,35.71
2022-12-17T19:44:54.172Z,36.44
2022-12-17T19:47:23.181Z,36.61
2022-12-17T19:49:51.510Z,36.20
2022-12-17T19:52:21.053Z,36.60
2022-12-17T19:54:49.948Z,36.01
2022-12-17T19:57:18.116Z,36.62
2022-12-17T19:59:46.324Z,36.23
2022-12-17T20:02:15.871Z,36.35
2022-12-17T20:04:44.153Z,36.44
2022-12-17T20:07:12.279Z,36.13
2022-12-17T20:09:44.709Z,36.46
2022-12-17T20:12:13.162Z,36.13
2022-12-17T20:14:41.353Z,36.25
2022-12-17T20:17:09.622Z,36.32
2022-12-17T20:19:37.764Z,36.42
2022-12-17T20:22:06.199Z,36.32
2022-12-17T20:24:34.320Z,36.21
2022-12-17T20:27:03.901Z,36.87
2022-12-17T20:29:32.003Z,36.16
2022-12-17T20:32:00.409Z,36.31
2022-12-17T20:34:28.614Z,36.23
2022-12-17T20:36:56.838Z,35.98
2022-12-17T20:39:27.396Z,36.07
2022-12-17T20:41:56.729Z,36.54
2022-12-17T20:44:26.276Z,35.97
2022-12-17T20:46:54.481Z,36.44
2022-12-17T20:49:22.597Z,36.22
2022-12-17T20:51:50.748Z,36.12
2022-12-17T20:54:18.993Z,36.33
2022-12-17T20:56:47.122Z,36.26
2022-12-17T20:59:16.370Z,36.25
2022-12-17T21:01:49.142Z,36.01
2022-12-17T21:04:21.153Z,36.25
2022-12-17T21:06:49.440Z,36.53
2022-12-17T21:09:18.584Z,36.32
2022-12-17T21:11:46.880Z,36.53
2022-12-17T21:14:16.482Z,36.01
2022-12-17T21:16:46.149Z,36.58
2022-12-17T21:19:15.616Z,35.89
2022-12-17T21:21:44.067Z,36.46
2022-12-17T21:24:12.285Z,35.83
2022-12-17T21:26:41.260Z,35.88
2022-12-17T21:29:09.572Z,35.56
2022-12-17T21:31:40.417Z,36.20
2022-12-17T21:34:12.486Z,36.19
2022-12-17T21:36:40.777Z,36.28
2022-12-17T21:39:09.922Z,35.94
2022-12-17T21:41:40.076Z,36.14
2022-12-17T21:44:14.915Z,36.03
2022-12-17T21:46:50.089Z,36.23
2022-12-17T21:49:20.065Z,35.76
2022-12-17T21:51:48.493Z,36.33
2022-12-17T21:54:19.619Z,36.03
2022-12-17T21:56:48.687Z,35.88
2022-12-17T21:59:16.811Z,36.08
2022-12-17T22:01:45.258Z,35.74
2022-12-17T22:04:13.564Z,36.22
2022-12-17T22:06:54.395Z,36.21
2022-12-17T22:09:50.840Z,35.80
2022-12-17T22:12:36.582Z,36.14
2022-12-17T22:15:08.349Z,36.19
2022-12-17T22:17:37.049Z,35.83
2022-12-17T22:20:05.485Z,35.90
2022-12-17T22:22:35.041Z,35.93
2022-12-17T22:25:08.006Z,36.04
2022-12-17T22:27:37.289Z,35.85
2022-12-17T22:30:23.493Z,35.86
2022-12-17T22:33:00.605Z,36.11
2022-12-17T22:36:13.193Z,35.69
2022-12-17T22:42:49.001Z,35.52
2022-12-17T22:44:35.486Z,36.01
2022-12-17T22:44:40.881Z,36.18
2022-12-17T22:47:06.997Z,35.48
2022-12-17T22:49:35.197Z,35.66
2022-12-17T22:52:03.468Z,35.87
2022-12-17T22:54:33.267Z,35.77
2022-12-17T22:57:35.376Z,35.68
2022-12-17T22:59:49.766Z,36.21
2022-12-17T23:02:18.163Z,35.75
2022-12-17T23:04:47.837Z,36.11
2022-12-17T23:07:15.912Z,35.88
2022-12-17T23:09:45.490Z,35.47
2022-12-17T23:12:31.041Z,36.04
2022-12-17T23:14:59.246Z,36.03
2022-12-17T23:17:27.337Z,35.40
2022-12-17T23:19:55.537Z,35.79
2022-12-17T23:22:23.703Z,35.81
2022-12-17T23:24:53.225Z,35.45
2022-12-17T23:27:21.427Z,35.96
2022-12-17T23:29:49.624Z,36.00
2022-12-17T23:32:17.782Z,36.04
2022-12-17T23:34:45.868Z,35.74
2022-12-17T23:37:14.010Z,35.65
2022-12-17T23:39:42.103Z,35.40
2022-12-17T23:42:11.613Z,35.51
2022-12-17T23:44:39.757Z,35.93
2022-12-17T23:47:07.834Z,35.73
2022-12-17T23:49:35.981Z,35.91
2022-12-17T23:52:04.054Z,35.25
2022-12-17T23:54:33.268Z,35.99
2022-12-17T23:57:01.476Z,35.38
2022-12-17T23:59:31.006Z,35.65
